Flight Track Log - Related Links

Times and Time Zones

All times are in EDT time to prevent confusion due to time zone crossing. See the SWA163 flight status page for this flight to view local times or setup timezone preferences in your user account.

Time Position Orientation Groundspeed Altitude Reporting Facility
EDT Latitude Longitude Course Direction KTS MPH feet Rate Location/Type
Tue 07:28:41 PM 35.0186 -106.6325 218° Southwest 168 193 6,000  Level Albuquerque Center
Tue 07:29:23 PM 34.9894 -106.6606 218° Southwest 198 228 7,200 2,362 Climbing Albuquerque Center
Tue 07:30:15 PM 34.9456 -106.6917 210° Southwest 222 255 9,700 2,263 Climbing Albuquerque Center
Tue 07:31:17 PM 34.9522 -106.7789 275° West 264 304 11,500 1,790 Climbing Albuquerque Center
Tue 07:32:19 PM 34.9731 -106.8969 282° West 351 404 13,400 2,226 Climbing Albuquerque Center
Tue 07:33:21 PM 34.9953 -107.0228 282° West 368 423 16,100 2,855 Climbing Albuquerque Center
Tue 07:34:23 PM 35.0214 -107.1692 282° West 380 437 19,300 2,613 Climbing Albuquerque Center
Tue 07:35:25 PM 35.0389 -107.2986 279° West 387 445 21,500 2,565 Climbing Albuquerque Center
Tue 07:36:27 PM 35.0325 -107.4364 267° West 377 434 24,600 2,226 Climbing Albuquerque Center
Tue 07:37:29 PM 35.0286 -107.5672 268° West 396 456 26,100 1,366 Climbing Albuquerque Center
Tue 07:38:30 PM 35.0244 -107.6992 268° West 397 457 27,400 1,561 Climbing Albuquerque Center
Tue 07:39:32 PM 35.0197 -107.8381 268° West 406 467 29,300 1,548 Climbing Albuquerque Center
Tue 07:40:34 PM 35.0144 -107.9756 267° West 407 468 30,600 1,452 Climbing Albuquerque Center
Tue 07:41:36 PM 35.0094 -108.1139 268° West 407 468 32,300 1,548 Climbing Albuquerque Center
Tue 07:42:38 PM 35.0028 -108.2717 267° West 406 467 33,800 1,742 Climbing Albuquerque Center
Tue 07:43:40 PM 34.9978 -108.3997 267° West 402 463 35,900 1,073 Climbing Albuquerque Center
Tue 07:44:41 PM 34.9917 -108.5425 267° West 385 443 36,000 49 Climbing Albuquerque Center
Tue 07:45:43 PM 34.9867 -108.6675 267° West 385 443 36,000  Level Albuquerque Center
Tue 07:46:45 PM 34.9819 -108.8164 268° West 387 445 36,000  Level Albuquerque Center
Tue 07:47:47 PM 34.9561 -108.9378 255° West 390 449 36,000  Level Albuquerque Center
Tue 07:48:49 PM 34.9228 -109.0622 252° West 394 453 36,000 -145 Level Albuquerque Center
Tue 07:49:51 PM 34.8836 -109.2081 252° West 400 460 35,700 -634 Descending Albuquerque Center
Tue 07:50:52 PM 34.8492 -109.3356 252° West 407 468 34,700 -976 Descending Albuquerque Center
Tue 07:51:54 PM 34.8100 -109.4850 252° West 409 471 33,700 -871 Descending Albuquerque Center
Tue 07:52:56 PM 34.7744 -109.6144 252° West 414 476 32,900 -823 Descending Albuquerque Center
Tue 07:53:58 PM 34.7325 -109.7697 252° West 425 489 32,000 -435 Descending Albuquerque Center
Tue 07:55:00 PM 34.6944 -109.8997 250° West 426 490 32,000 -387 Level Albuquerque Center
Tue 07:56:02 PM 34.6456 -110.0250 245° Southwest 427 491 31,200 -871 Descending Albuquerque Center
Tue 07:57:04 PM 34.5886 -110.1694 244° Southwest 427 491 30,200 -585 Descending Albuquerque Center
Tue 07:58:05 PM 34.5225 -110.2714 232° Southwest 407 468 30,000 -98 Descending Albuquerque Center
Tue 07:59:07 PM 34.4486 -110.4028 236° Southwest 415 478 30,000  Level Albuquerque Center
Tue 08:00:09 PM 34.3914 -110.5142 238° Southwest 427 491 30,000  Level Albuquerque Center
Tue 08:01:11 PM 34.3247 -110.6319 236° Southwest 426 490 30,000 -242 Level Albuquerque Center
Tue 08:02:13 PM 34.2406 -110.7722 234° Southwest 431 496 29,500 -1,645 Descending Albuquerque Center
Tue 08:03:15 PM 34.1756 -110.8889 236° Southwest 427 491 26,600 -2,613 Descending Albuquerque Center
Tue 08:04:17 PM 34.1147 -110.9950 235° Southwest 398 458 24,100 -2,293 Descending Albuquerque Center
Tue 08:05:18 PM 34.0567 -111.0969 236° Southwest 377 434 21,900 -2,390 Descending Albuquerque Center
Tue 08:06:20 PM 33.9889 -111.1836 227° Southwest 361 415 19,200 -2,758 Descending Albuquerque Center
Tue 08:07:22 PM 33.9161 -111.2692 224° Southwest 361 415 16,200 -2,952 Descending Albuquerque Center
Tue 08:08:24 PM 33.8464 -111.3589 227° Southwest 363 418 13,100 -2,855 Descending Albuquerque Center
Tue 08:09:26 PM 33.7978 -111.4906 246° West 358 412 10,300 -1,452 Descending Albuquerque Center
Tue 08:10:28 PM 33.7636 -111.5883 247° West 322 371 10,100 -145 Descending Albuquerque Center
Tue 08:11:30 PM 33.7292 -111.6839 247° West 312 359 10,000 -98 Descending Albuquerque Center
Tue 08:12:31 PM 33.6900 -111.7656 240° Southwest 286 329 9,900 -488 Descending Albuquerque Center
Tue 08:13:33 PM 33.6469 -111.8447 237° Southwest 284 327 9,000 -435 Descending Albuquerque Center
Tue 08:14:35 PM 33.6036 -111.9217 236° Southwest 281 323 9,000 -387 Level Albuquerque Center
Tue 08:15:37 PM 33.5697 -111.9883 239° Southwest 235 270 8,200 -1,000 Descending Albuquerque Center
Tue 08:16:35 PM 33.5333 -112.0667 241° Southwest 233 268 7,000 -1,119 Descending Phoenix TRACON
Tue 08:17:35 PM 33.5333 -112.1333 270° West 231 266 6,000 -1,200 Descending Phoenix TRACON
Tue 08:18:35 PM 33.4833 -112.1833 220° Southwest 233 268 4,600 -1,150 Descending Phoenix TRACON
Tue 08:19:35 PM 33.4500 -112.1500 140° Southeast 168 193 3,700 -1,140 Descending Phoenix TRACON
Tue 08:20:36 PM 33.4333 -112.1000 112° Southeast 144 166 2,300 -1,041 Descending Phoenix TRACON
Tue 08:21:36 PM 33.4333 -112.0500 90° East 138 159 1,600 -700 Descending Phoenix TRACON
Tue 08:24:00 PM 33.4343 -112.0116 90° East  Level Estimated

Login

Don't have an account? Register now (free) for customized features, flight alerts, and more!